Main page
METAR-TAF:

METAR-TAF

Airports :

Agen La Garenne Airport

Agen, France

latitude: 44-11N, longitude: 000-36E, elevation: 61 m

Current weather observation

The report was made 40 minutes ago, at 21:00 UTC
Wind 1 kt from the West
Temperature 15°C
Humidity 100%
Pressure 1015 hPa
Visibility 10 km or more
no clouds below 1500 m and no cumulonimbus

METAR: LFBA 172100Z AUTO 27001KT CAVOK 15/15 Q1015

Time: 23:40 (21:40 UTC)

Forecast

The report was made 7 hours and 40 minutes ago, at 14:00 UTC
Forecast valid from 17 at 15 UTC to 17 at 24 UTC
Wind 2 kt from variable directions
Visibility 10 km or more
Scattered clouds at a height of 3000 ft
Becoming
from 17 at 16 UTC to 17 at 18 UTC
Visibility 10 km or more
no clouds below 1500 m and no cumulonimbus

TAF: LFBA 171400Z 1715/1724 VRB02KT 9999 SCT030 BECMG 1716/1718 CAVOK

Weather observations and forecasts of more than 4000 airports (METAR and TAF reports).

The available stations are represented by yellow and red dots on the map.

Hover mouse over dot to see the name of the station.

Then click to see weather observations and forecasts.

To change the map : click on the green buttons with a black cross to zoom in, on the green button with a dash to zoom out, or on the green arrows for adjacent maps.


METAR-TAF: